Key West, Florida
Current Conditions -  °F | °C
As of 12:03 PM on Thursday 23 Oct 2014 (Local Time) from KEYW Reporting Station
Light Rain Light Rain  
Wind Chill: 78°   Ceiling: 4200
Heat Index: 81°   Visibility: 10mi
Dew Point: 77°   Wind: 9mph
Humidity: 96%   Direction: 60°ENE
Pressure: 29.89"   Gusts: NA
Location:  24.55°N, 81.8°W
Report Text: KEYW 231603Z 06008KT 10SM -RA FEW014 BKN042 OVC065 26/25 A2989 RMK AO2 P0000 T02560250
Loading
Personal Weather Stations






























Interactive Weather Map
Tropical Storm Tracking
New forecast layout! Learn more

10-Day Weather Forecast

Advertisements
Track Severe Weather on mobile